createdAt,value
2018-03-17T00:01:41.927Z,-1.20
2018-03-17T00:04:11.152Z,-1.30
2018-03-17T00:06:40.110Z,-1.30
2018-03-17T00:09:07.939Z,-1.30
2018-03-17T00:11:36.584Z,-1.30
2018-03-17T00:14:04.114Z,-1.30
2018-03-17T00:16:31.881Z,-1.30
2018-03-17T00:19:01.195Z,-1.30
2018-03-17T00:21:29.428Z,-1.30
2018-03-17T00:23:58.344Z,-1.20
2018-03-17T00:26:26.213Z,-1.30
2018-03-17T00:28:54.158Z,-1.30
2018-03-17T00:31:21.891Z,-1.30
2018-03-17T00:33:49.781Z,-1.30
2018-03-17T00:36:18.393Z,-1.30
2018-03-17T00:38:46.035Z,-1.30
2018-03-17T00:41:14.469Z,-1.30
2018-03-17T00:43:42.405Z,-1.30
2018-03-17T00:46:10.756Z,-1.30
2018-03-17T00:48:39.104Z,-1.30
2018-03-17T00:51:06.831Z,-1.30
2018-03-17T00:53:35.063Z,-1.30
2018-03-17T00:56:03.418Z,-1.30
2018-03-17T00:58:32.139Z,-1.30
2018-03-17T01:00:59.907Z,-1.30
2018-03-17T01:03:31.328Z,-1.30
2018-03-17T01:06:00.010Z,-1.30
2018-03-17T01:08:30.955Z,-1.30
2018-03-17T01:11:00.318Z,-1.30
2018-03-17T01:13:28.648Z,-1.30
2018-03-17T01:15:57.105Z,-1.30
2018-03-17T01:18:25.697Z,-1.30
2018-03-17T01:20:53.571Z,-1.30
2018-03-17T01:23:22.135Z,-1.30
2018-03-17T01:25:50.382Z,-1.30
2018-03-17T01:28:19.321Z,-1.30
2018-03-17T01:33:19.054Z,-1.30
2018-03-17T01:35:48.708Z,-1.30
2018-03-17T01:38:18.340Z,-1.30
2018-03-17T01:40:46.487Z,-1.40
2018-03-17T01:43:14.139Z,-1.30
2018-03-17T01:45:42.720Z,-1.30
2018-03-17T01:48:10.420Z,-1.40
2018-03-17T01:50:38.149Z,-1.40
2018-03-17T01:53:07.280Z,-1.40
2018-03-17T01:55:34.794Z,-1.40
2018-03-17T01:58:03.154Z,-1.40
2018-03-17T02:00:30.757Z,-1.40
2018-03-17T02:02:58.590Z,-1.40
2018-03-17T02:05:27.047Z,-1.40
2018-03-17T02:07:54.680Z,-1.40
2018-03-17T02:10:22.353Z,-1.40
2018-03-17T02:12:53.896Z,-1.50
2018-03-17T02:15:24.230Z,-1.50
2018-03-17T02:17:52.669Z,-1.50
2018-03-17T02:20:20.238Z,-1.60
2018-03-17T02:22:48.073Z,-1.60
2018-03-17T02:25:16.476Z,-1.50
2018-03-17T02:27:45.268Z,-1.60
2018-03-17T02:30:13.081Z,-1.60
2018-03-17T02:32:40.961Z,-1.60
2018-03-17T02:35:09.456Z,-1.60
2018-03-17T02:37:37.386Z,-1.60
2018-03-17T02:40:05.393Z,-1.60
2018-03-17T02:42:33.256Z,-1.60
2018-03-17T02:45:02.076Z,-1.60
2018-03-17T02:47:33.058Z,-1.60
2018-03-17T02:50:05.340Z,-1.60
2018-03-17T02:52:32.963Z,-1.60
2018-03-17T02:55:00.868Z,-1.70
2018-03-17T02:57:28.478Z,-1.70
2018-03-17T02:59:56.186Z,-1.70
2018-03-17T03:02:23.734Z,-1.80
2018-03-17T03:04:51.414Z,-1.80
2018-03-17T03:07:18.916Z,-1.80
2018-03-17T03:09:46.621Z,-1.80
2018-03-17T03:12:15.867Z,-1.80
2018-03-17T03:14:43.771Z,-1.90
2018-03-17T03:17:12.063Z,-1.90
2018-03-17T03:19:40.262Z,-1.90
2018-03-17T03:22:09.781Z,-1.90
2018-03-17T03:24:37.828Z,-1.90
2018-03-17T03:27:05.492Z,-1.90
2018-03-17T03:29:37.632Z,-1.90
2018-03-17T03:32:06.516Z,-1.90
2018-03-17T03:34:36.466Z,-1.90
2018-03-17T03:37:04.006Z,-2.00
2018-03-17T03:39:31.619Z,-2.00
2018-03-17T03:42:01.054Z,-2.00
2018-03-17T03:44:28.640Z,-2.00
2018-03-17T03:46:59.386Z,-2.10
2018-03-17T03:49:28.720Z,-2.10
2018-03-17T03:51:57.546Z,-2.10
2018-03-17T03:54:25.329Z,-2.10
2018-03-17T03:56:54.149Z,-2.10
2018-03-17T03:59:22.317Z,-2.20
2018-03-17T04:01:50.892Z,-2.20
2018-03-17T04:04:19.558Z,-2.20
2018-03-17T04:06:47.698Z,-2.20
2018-03-17T04:09:15.953Z,-2.20
2018-03-17T04:11:43.817Z,-2.20
2018-03-17T04:14:13.508Z,-2.20
2018-03-17T04:16:42.297Z,-2.30
2018-03-17T04:19:11.324Z,-2.30
2018-03-17T04:21:39.268Z,-2.30
2018-03-17T04:24:07.430Z,-2.30
2018-03-17T04:26:35.812Z,-2.40
2018-03-17T04:29:03.517Z,-2.40
2018-03-17T04:31:32.347Z,-2.40
2018-03-17T04:34:01.347Z,-2.40
2018-03-17T04:36:29.068Z,-2.40
2018-03-17T04:38:59.614Z,-2.40
2018-03-17T04:41:28.185Z,-2.40
2018-03-17T04:43:56.184Z,-2.40
2018-03-17T04:46:24.174Z,-2.40
2018-03-17T04:48:53.047Z,-2.50
2018-03-17T04:51:21.055Z,-2.50
2018-03-17T04:53:49.046Z,-2.50
2018-03-17T04:56:17.750Z,-2.50
2018-03-17T04:58:45.438Z,-2.50
2018-03-17T05:01:14.962Z,-2.50
2018-03-17T05:03:43.584Z,-2.50
2018-03-17T05:06:11.676Z,-2.50
2018-03-17T05:08:39.371Z,-2.50
2018-03-17T05:11:07.643Z,-2.50
2018-03-17T05:13:39.473Z,-2.60
2018-03-17T05:16:07.060Z,-2.60
2018-03-17T05:18:35.435Z,-2.60
2018-03-17T05:21:03.711Z,-2.70
2018-03-17T05:23:33.838Z,-2.60
2018-03-17T05:26:01.443Z,-2.60
2018-03-17T05:28:28.955Z,-2.60
2018-03-17T05:30:57.515Z,-2.70
2018-03-17T05:33:25.048Z,-2.70
2018-03-17T05:35:52.976Z,-2.70
2018-03-17T05:38:21.305Z,-2.70
2018-03-17T05:40:48.912Z,-2.80
2018-03-17T05:43:16.442Z,-2.70
2018-03-17T05:45:44.091Z,-2.80
2018-03-17T05:48:13.191Z,-2.80
2018-03-17T05:50:41.915Z,-2.80
2018-03-17T05:53:09.624Z,-2.80
2018-03-17T05:55:41.134Z,-2.90
2018-03-17T05:58:09.110Z,-2.90
2018-03-17T06:00:36.696Z,-2.90
2018-03-17T06:03:07.613Z,-2.90
2018-03-17T06:05:35.297Z,-2.90
2018-03-17T06:08:03.465Z,-2.90
2018-03-17T06:10:32.124Z,-2.90
2018-03-17T06:12:59.948Z,-3.00
2018-03-17T06:15:28.268Z,-3.00
2018-03-17T06:17:55.842Z,-3.00
2018-03-17T06:20:23.524Z,-3.00
2018-03-17T06:22:51.548Z,-3.00
2018-03-17T06:25:21.344Z,-3.00
2018-03-17T06:27:49.000Z,-3.00
2018-03-17T06:30:16.657Z,-3.10
2018-03-17T06:32:44.278Z,-3.10
2018-03-17T06:35:15.837Z,-3.10
2018-03-17T06:37:43.600Z,-3.10
2018-03-17T06:40:15.474Z,-3.00
2018-03-17T06:42:44.673Z,-3.20
2018-03-17T06:45:12.424Z,-3.20
2018-03-17T06:47:41.750Z,-3.10
2018-03-17T06:50:09.309Z,-3.10
2018-03-17T06:52:37.583Z,-3.20
2018-03-17T06:55:05.120Z,-3.20
2018-03-17T06:57:32.734Z,-3.20
2018-03-17T07:00:01.408Z,-3.20
2018-03-17T07:02:29.783Z,-3.20
2018-03-17T07:04:57.497Z,-3.20
2018-03-17T07:07:25.296Z,-3.30
2018-03-17T07:09:52.924Z,-3.30
2018-03-17T07:12:20.773Z,-3.20
2018-03-17T07:14:48.351Z,-3.20
2018-03-17T07:17:16.733Z,-3.20
2018-03-17T07:19:44.887Z,-3.20
2018-03-17T07:22:13.517Z,-3.30
2018-03-17T07:24:41.036Z,-3.30
2018-03-17T07:27:08.981Z,-3.20
2018-03-17T07:29:36.639Z,-3.20
2018-03-17T07:32:08.957Z,-3.30
2018-03-17T07:34:37.336Z,-3.20
2018-03-17T07:37:04.789Z,-3.30
2018-03-17T07:39:33.615Z,-3.20
2018-03-17T07:42:02.370Z,-3.20
2018-03-17T07:44:31.586Z,-3.20
2018-03-17T07:46:59.886Z,-3.20
2018-03-17T07:49:28.616Z,-3.20
2018-03-17T07:51:56.581Z,-3.20
2018-03-17T07:54:24.319Z,-3.20
2018-03-17T07:56:52.682Z,-3.20
2018-03-17T07:59:20.266Z,-3.20
2018-03-17T08:01:47.956Z,-3.20
2018-03-17T08:04:18.110Z,-3.20
2018-03-17T08:06:45.698Z,-3.30
2018-03-17T08:09:14.092Z,-3.10
2018-03-17T08:11:41.604Z,-3.20
2018-03-17T08:14:09.366Z,-3.10
2018-03-17T08:16:38.699Z,-3.10
2018-03-17T08:19:06.234Z,-3.10
2018-03-17T08:21:33.730Z,-3.10
2018-03-17T08:24:01.437Z,-3.20
2018-03-17T08:26:29.604Z,-3.20
2018-03-17T08:28:57.990Z,-3.10
2018-03-17T08:31:26.378Z,-3.20
2018-03-17T08:33:55.203Z,-3.20
2018-03-17T08:36:22.929Z,-3.20
2018-03-17T08:38:50.489Z,-3.00
2018-03-17T08:41:18.210Z,-3.10
2018-03-17T08:43:50.244Z,-3.20
2018-03-17T08:46:19.356Z,-3.20
2018-03-17T08:48:47.821Z,-3.10
2018-03-17T08:51:16.235Z,-3.10
2018-03-17T08:53:43.918Z,-3.10
2018-03-17T08:56:12.298Z,-3.10
2018-03-17T08:58:40.746Z,-3.10
2018-03-17T09:01:08.480Z,-3.10
2018-03-17T09:03:36.991Z,-3.10
2018-03-17T09:06:04.645Z,-3.00
2018-03-17T09:08:33.786Z,-3.00
2018-03-17T09:11:02.778Z,-3.10
2018-03-17T09:13:30.986Z,-3.20
2018-03-17T09:15:58.499Z,-3.10
2018-03-17T09:18:27.474Z,-3.20
2018-03-17T09:20:55.724Z,-3.10
2018-03-17T09:23:23.716Z,-3.00
2018-03-17T09:25:52.047Z,-3.00
2018-03-17T09:28:21.538Z,-3.00
2018-03-17T09:30:49.680Z,-3.00
2018-03-17T09:33:18.793Z,-3.10
2018-03-17T09:35:46.528Z,-3.10
2018-03-17T09:38:14.302Z,-3.10
2018-03-17T09:40:42.445Z,-3.10
2018-03-17T09:43:10.176Z,-3.00
2018-03-17T09:45:38.565Z,-3.00
2018-03-17T09:48:07.807Z,-3.00
2018-03-17T09:50:37.951Z,-3.00
2018-03-17T09:53:05.028Z,-3.00
2018-03-17T09:55:33.375Z,-3.00
2018-03-17T09:58:01.296Z,-3.00
2018-03-17T10:00:29.042Z,-3.10
2018-03-17T10:02:56.544Z,-3.00
2018-03-17T10:05:24.339Z,-3.10
2018-03-17T10:07:52.147Z,-3.10
2018-03-17T10:10:20.792Z,-3.00
2018-03-17T10:12:48.365Z,-3.00
2018-03-17T10:15:15.907Z,-3.00
2018-03-17T10:17:44.424Z,-3.00
2018-03-17T10:20:12.087Z,-3.00
2018-03-17T10:22:40.372Z,-2.60
2018-03-17T10:25:09.471Z,-2.60
2018-03-17T10:27:37.844Z,-2.40
2018-03-17T10:30:05.748Z,-2.50
2018-03-17T10:32:35.146Z,-2.60
2018-03-17T10:35:04.460Z,-2.50
2018-03-17T10:37:32.476Z,-2.70
2018-03-17T10:40:00.004Z,-2.80
2018-03-17T10:42:28.767Z,-2.50
2018-03-17T10:44:58.254Z,-2.50
2018-03-17T10:47:26.574Z,-2.70
2018-03-17T10:49:54.154Z,-2.60
2018-03-17T10:52:22.530Z,-2.60
2018-03-17T10:54:50.800Z,-2.90
2018-03-17T10:57:19.134Z,-2.80
2018-03-17T10:59:46.708Z,-2.70
2018-03-17T11:02:16.535Z,-2.90
2018-03-17T11:04:44.634Z,-2.90
2018-03-17T11:07:14.412Z,-2.90
2018-03-17T11:09:41.999Z,-2.80
2018-03-17T11:12:09.689Z,-2.80
2018-03-17T11:14:37.487Z,-2.90
2018-03-17T11:17:06.280Z,-3.00
2018-03-17T11:19:35.052Z,-2.90
2018-03-17T11:22:03.235Z,-2.90
2018-03-17T11:24:32.135Z,-2.90
2018-03-17T11:26:59.600Z,-3.00
2018-03-17T11:29:27.369Z,-3.00
2018-03-17T11:31:56.928Z,-3.10
2018-03-17T11:34:24.464Z,-3.00
2018-03-17T11:36:52.723Z,-3.00
2018-03-17T11:39:20.968Z,-3.00
2018-03-17T11:41:48.523Z,-2.80
2018-03-17T11:44:16.732Z,-2.70
2018-03-17T11:46:44.996Z,-2.70
2018-03-17T11:49:12.505Z,-2.80
2018-03-17T11:51:41.625Z,-2.70
2018-03-17T11:54:10.153Z,-2.60
2018-03-17T11:56:38.167Z,-2.60
2018-03-17T11:59:07.167Z,-2.60
2018-03-17T12:01:35.832Z,-2.70
2018-03-17T12:04:03.518Z,-2.70
2018-03-17T12:06:31.347Z,-2.60
2018-03-17T12:09:01.114Z,-2.70
2018-03-17T12:11:30.038Z,-2.90
2018-03-17T12:13:57.760Z,-2.90
2018-03-17T12:16:25.609Z,-2.90
2018-03-17T12:18:53.713Z,-2.90
2018-03-17T12:21:21.253Z,-2.90
2018-03-17T12:23:48.888Z,-2.90
2018-03-17T12:26:16.540Z,-2.90
2018-03-17T12:28:44.003Z,-2.90
2018-03-17T12:31:12.281Z,-2.80
2018-03-17T12:33:40.289Z,-3.00
2018-03-17T12:36:07.782Z,-2.90
2018-03-17T12:38:35.335Z,-2.90
2018-03-17T12:41:02.871Z,-2.80
2018-03-17T12:43:30.566Z,-2.70
2018-03-17T12:45:58.121Z,-2.60
2018-03-17T12:48:26.496Z,-2.70
2018-03-17T12:50:54.026Z,-2.70
2018-03-17T12:53:22.205Z,-2.80
2018-03-17T12:55:49.683Z,-2.70
2018-03-17T12:58:17.233Z,-2.70
2018-03-17T13:00:44.759Z,-2.70
2018-03-17T13:03:13.211Z,-2.70
2018-03-17T13:05:40.839Z,-2.60
2018-03-17T13:08:09.292Z,-2.60
2018-03-17T13:10:36.898Z,-2.60
2018-03-17T13:13:05.332Z,-2.60
2018-03-17T13:15:32.843Z,-2.60
2018-03-17T13:18:00.727Z,-2.70
2018-03-17T13:20:28.574Z,-2.70
2018-03-17T13:22:56.090Z,-2.70
2018-03-17T13:25:23.545Z,-2.80
2018-03-17T13:27:51.222Z,-2.70
2018-03-17T13:30:18.826Z,-2.80
2018-03-17T13:32:46.353Z,-2.70
2018-03-17T13:35:15.776Z,-2.70
2018-03-17T13:37:43.272Z,-2.60
2018-03-17T13:40:10.893Z,-2.70
2018-03-17T13:42:38.353Z,-2.80
2018-03-17T13:45:05.885Z,-2.70
2018-03-17T13:47:33.402Z,-2.80
2018-03-17T13:50:00.938Z,-2.70
2018-03-17T13:52:28.473Z,-2.60
2018-03-17T13:54:56.433Z,-2.70
2018-03-17T13:57:25.221Z,-2.70
2018-03-17T13:59:53.472Z,-2.60
2018-03-17T14:02:21.051Z,-2.60
2018-03-17T14:04:48.492Z,-2.60
2018-03-17T14:07:16.161Z,-2.70
2018-03-17T14:09:43.707Z,-2.60
2018-03-17T14:12:11.926Z,-2.70
2018-03-17T14:14:40.201Z,-2.70
2018-03-17T14:17:08.816Z,-2.70
2018-03-17T14:19:36.303Z,-2.60
2018-03-17T14:22:04.546Z,-2.50
2018-03-17T14:24:32.269Z,-2.60
2018-03-17T14:26:59.827Z,-2.60
2018-03-17T14:29:27.393Z,-2.70
2018-03-17T14:31:55.173Z,-2.80
2018-03-17T14:34:22.704Z,-2.80
2018-03-17T14:36:51.570Z,-2.80
2018-03-17T14:39:19.578Z,-2.80
2018-03-17T14:41:47.094Z,-2.80
2018-03-17T14:44:14.568Z,-2.70
2018-03-17T14:46:42.876Z,-2.70
2018-03-17T14:49:10.399Z,-2.70
2018-03-17T14:51:37.892Z,-2.80
2018-03-17T14:54:05.481Z,-2.80
2018-03-17T14:56:33.056Z,-2.70
2018-03-17T14:59:00.645Z,-2.80
2018-03-17T15:01:28.573Z,-2.80
2018-03-17T15:03:56.076Z,-2.80
2018-03-17T15:06:24.263Z,-2.90
2018-03-17T15:08:51.871Z,-2.80
2018-03-17T15:11:19.377Z,-2.80
2018-03-17T15:13:46.994Z,-2.70
2018-03-17T15:16:14.604Z,-2.80
2018-03-17T15:18:42.164Z,-2.80
2018-03-17T15:21:09.682Z,-2.80
2018-03-17T15:23:37.268Z,-2.70
2018-03-17T15:26:05.514Z,-2.60
2018-03-17T15:28:33.006Z,-2.60
2018-03-17T15:31:00.473Z,-2.70
2018-03-17T15:33:28.019Z,-2.70
2018-03-17T15:35:55.557Z,-2.70
2018-03-17T15:38:23.946Z,-2.70
2018-03-17T15:40:52.599Z,-2.60
2018-03-17T15:43:20.293Z,-2.60
2018-03-17T15:45:47.759Z,-2.60
2018-03-17T15:48:15.302Z,-2.60
2018-03-17T15:50:42.814Z,-2.60
2018-03-17T15:53:11.137Z,-2.60
2018-03-17T15:55:39.417Z,-2.60
2018-03-17T15:58:06.945Z,-2.60
2018-03-17T16:00:34.493Z,-2.60
2018-03-17T16:03:02.823Z,-2.60
2018-03-17T16:05:30.261Z,-2.60
2018-03-17T16:07:57.846Z,-2.60
2018-03-17T16:10:25.290Z,-2.60
2018-03-17T16:12:53.042Z,-2.70
2018-03-17T16:15:20.519Z,-2.70
2018-03-17T16:17:48.006Z,-2.60
2018-03-17T16:20:15.526Z,-2.70
2018-03-17T16:22:43.847Z,-2.60
2018-03-17T16:25:11.301Z,-2.60
2018-03-17T16:27:38.857Z,-2.60
2018-03-17T16:30:06.344Z,-2.60
2018-03-17T16:32:33.813Z,-2.60
2018-03-17T16:35:01.399Z,-2.60
2018-03-17T16:37:28.939Z,-2.70
2018-03-17T16:39:56.476Z,-2.70
2018-03-17T16:42:23.960Z,-2.60
2018-03-17T16:44:51.474Z,-2.60
2018-03-17T16:47:19.043Z,-2.60
2018-03-17T16:49:46.532Z,-2.60
2018-03-17T16:52:14.101Z,-2.70
2018-03-17T16:54:41.678Z,-2.60
2018-03-17T16:57:09.193Z,-2.70
2018-03-17T16:59:36.845Z,-2.70
2018-03-17T17:02:05.251Z,-2.70
2018-03-17T17:04:33.535Z,-2.70
2018-03-17T17:07:01.036Z,-2.70
2018-03-17T17:09:28.604Z,-2.70
2018-03-17T17:11:56.221Z,-2.70
2018-03-17T17:14:23.700Z,-2.70
2018-03-17T17:16:51.307Z,-2.70
2018-03-17T17:19:18.763Z,-2.70
2018-03-17T17:21:46.289Z,-2.70
2018-03-17T17:24:15.722Z,-2.80
2018-03-17T17:26:43.302Z,-2.80
2018-03-17T17:29:10.841Z,-2.70
2018-03-17T17:31:38.368Z,-2.70
2018-03-17T17:34:06.488Z,-2.70
2018-03-17T17:36:34.216Z,-2.70
2018-03-17T17:39:02.416Z,-2.70
2018-03-17T17:41:29.985Z,-2.70
2018-03-17T17:43:57.511Z,-2.70
2018-03-17T17:46:25.982Z,-2.70
2018-03-17T17:48:53.544Z,-2.70
2018-03-17T17:51:21.606Z,-2.70
2018-03-17T17:53:49.213Z,-2.70
2018-03-17T17:56:16.740Z,-2.70
2018-03-17T17:58:44.290Z,-2.70
2018-03-17T18:01:12.106Z,-2.70
2018-03-17T18:03:39.589Z,-2.70
2018-03-17T18:06:07.165Z,-2.70
2018-03-17T18:08:34.655Z,-2.70
2018-03-17T18:11:02.260Z,-2.70
2018-03-17T18:13:29.702Z,-2.70
2018-03-17T18:15:57.498Z,-2.70
2018-03-17T18:18:25.865Z,-2.70
2018-03-17T18:20:53.462Z,-2.70
2018-03-17T18:23:20.923Z,-2.70
2018-03-17T18:25:49.332Z,-2.70
2018-03-17T18:28:16.844Z,-2.70
2018-03-17T18:30:44.895Z,-2.60
2018-03-17T18:33:13.105Z,-2.60
2018-03-17T18:35:40.924Z,-2.60
2018-03-17T18:38:09.433Z,-2.60
2018-03-17T18:40:37.627Z,-2.60
2018-03-17T18:43:05.238Z,-2.60
2018-03-17T18:45:32.764Z,-2.60
2018-03-17T18:48:00.298Z,-2.60
2018-03-17T18:50:27.820Z,-2.60
2018-03-17T18:52:56.894Z,-2.60
2018-03-17T18:55:24.434Z,-2.60
2018-03-17T18:57:51.928Z,-2.60
2018-03-17T19:00:20.281Z,-2.60
2018-03-17T19:02:47.902Z,-2.60
2018-03-17T19:05:16.128Z,-2.50
2018-03-17T19:07:43.706Z,-2.50
2018-03-17T19:10:11.411Z,-2.50
2018-03-17T19:12:41.128Z,-2.50
2018-03-17T19:15:11.040Z,-2.50
2018-03-17T19:17:38.656Z,-2.50
2018-03-17T19:20:06.244Z,-2.50
2018-03-17T19:22:33.824Z,-2.50
2018-03-17T19:25:01.913Z,-2.50
2018-03-17T19:27:30.120Z,-2.50
2018-03-17T19:30:08.371Z,-2.40
2018-03-17T19:32:37.064Z,-2.40
2018-03-17T19:35:04.718Z,-2.40
2018-03-17T19:40:08.459Z,-2.40
2018-03-17T19:42:35.870Z,-2.40
2018-03-17T19:45:04.914Z,-2.40
2018-03-17T19:47:32.467Z,-2.40
2018-03-17T19:49:59.985Z,-2.40
2018-03-17T19:52:27.517Z,-2.40
2018-03-17T19:54:56.845Z,-2.40
2018-03-17T19:57:24.429Z,-2.40
2018-03-17T19:59:52.115Z,-2.40
2018-03-17T20:02:20.464Z,-2.40
2018-03-17T20:04:48.262Z,-2.40
2018-03-17T20:07:16.030Z,-2.40
2018-03-17T20:09:43.599Z,-2.40
2018-03-17T20:12:11.584Z,-2.40
2018-03-17T20:14:39.165Z,-2.40
2018-03-17T20:17:07.035Z,-2.30
2018-03-17T20:19:35.450Z,-2.30
2018-03-17T20:22:04.001Z,-2.40
2018-03-17T20:24:31.693Z,-2.40
2018-03-17T20:27:02.263Z,-2.40
2018-03-17T20:29:31.248Z,-2.30
2018-03-17T20:31:58.793Z,-2.30
2018-03-17T20:34:27.847Z,-2.30
2018-03-17T20:36:55.395Z,-2.30
2018-03-17T20:39:22.921Z,-2.30
2018-03-17T20:41:51.215Z,-2.30
2018-03-17T20:44:18.750Z,-2.30
2018-03-17T20:46:46.481Z,-2.30
2018-03-17T20:49:14.274Z,-2.30
2018-03-17T20:51:42.102Z,-2.30
2018-03-17T20:54:10.034Z,-2.30
2018-03-17T20:56:37.651Z,-2.30
2018-03-17T20:59:05.557Z,-2.30
2018-03-17T21:01:33.275Z,-2.30
2018-03-17T21:04:00.809Z,-2.30
2018-03-17T21:06:29.678Z,-2.30
2018-03-17T21:08:57.212Z,-2.30
2018-03-17T21:11:24.770Z,-2.20
2018-03-17T21:13:53.183Z,-2.30
2018-03-17T21:16:20.727Z,-2.20
2018-03-17T21:18:48.353Z,-2.30
2018-03-17T21:21:15.831Z,-2.20
2018-03-17T21:23:43.363Z,-2.20
2018-03-17T21:26:10.903Z,-2.20
2018-03-17T21:28:38.529Z,-2.20
2018-03-17T21:31:06.083Z,-2.20
2018-03-17T21:33:33.843Z,-2.20
2018-03-17T21:36:01.378Z,-2.20
2018-03-17T21:38:29.689Z,-2.30
2018-03-17T21:40:57.819Z,-2.30
2018-03-17T21:43:25.300Z,-2.30
2018-03-17T21:45:52.853Z,-2.20
2018-03-17T21:48:20.422Z,-2.30
2018-03-17T21:50:48.002Z,-2.20
2018-03-17T21:53:15.467Z,-2.30
2018-03-17T21:55:44.561Z,-2.30
2018-03-17T21:58:12.131Z,-2.30
2018-03-17T22:00:39.647Z,-2.30
2018-03-17T22:03:07.113Z,-2.30
2018-03-17T22:05:34.645Z,-2.30
2018-03-17T22:08:02.219Z,-2.30
2018-03-17T22:10:29.838Z,-2.30
2018-03-17T22:12:57.390Z,-2.30
2018-03-17T22:15:25.665Z,-2.30
2018-03-17T22:17:53.147Z,-2.30
2018-03-17T22:20:21.111Z,-2.30
2018-03-17T22:22:48.761Z,-2.40
2018-03-17T22:25:17.389Z,-2.40
2018-03-17T22:27:44.869Z,-2.40
2018-03-17T22:30:12.479Z,-2.30
2018-03-17T22:32:40.009Z,-2.30
2018-03-17T22:35:07.543Z,-2.40
2018-03-17T22:37:35.801Z,-2.40
2018-03-17T22:40:03.390Z,-2.40
2018-03-17T22:42:30.959Z,-2.40
2018-03-17T22:44:58.469Z,-2.40
2018-03-17T22:47:25.989Z,-2.40
2018-03-17T22:49:54.357Z,-2.40
2018-03-17T22:52:21.904Z,-2.40
2018-03-17T22:54:49.675Z,-2.40
2018-03-17T22:57:17.086Z,-2.30
2018-03-17T22:59:44.667Z,-2.40
2018-03-17T23:02:12.145Z,-2.40
2018-03-17T23:04:39.675Z,-2.40
2018-03-17T23:07:07.785Z,-2.40
2018-03-17T23:09:35.942Z,-2.40
2018-03-17T23:12:04.264Z,-2.30
2018-03-17T23:14:31.826Z,-2.40
2018-03-17T23:16:59.397Z,-2.30
2018-03-17T23:19:27.036Z,-2.40
2018-03-17T23:21:54.787Z,-2.40
2018-03-17T23:24:22.335Z,-2.40
2018-03-17T23:26:50.605Z,-2.40
2018-03-17T23:29:18.162Z,-2.40
2018-03-17T23:31:46.484Z,-2.30
2018-03-17T23:34:14.000Z,-2.30
2018-03-17T23:36:41.472Z,-2.40
2018-03-17T23:39:09.060Z,-2.30
2018-03-17T23:41:36.599Z,-2.40
2018-03-17T23:44:04.139Z,-2.40
2018-03-17T23:46:31.662Z,-2.40
2018-03-17T23:48:59.189Z,-2.40
2018-03-17T23:51:27.529Z,-2.40
2018-03-17T23:53:55.074Z,-2.30
2018-03-17T23:56:22.576Z,-2.40
2018-03-17T23:58:50.137Z,-2.30
